sensor_id;sensor_type;location;lat;lon;timestamp;temperature;humidity
1355;DHT22;671;48.972;9.276;2023-03-14T00:02:21;11.00;27.10
1355;DHT22;671;48.972;9.276;2023-03-14T00:04:48;11.00;23.20
1355;DHT22;671;48.972;9.276;2023-03-14T00:07:14;11.00;23.40
1355;DHT22;671;48.972;9.276;2023-03-14T00:09:41;11.00;22.30
1355;DHT22;671;48.972;9.276;2023-03-14T00:12:08;11.00;16.30
1355;DHT22;671;48.972;9.276;2023-03-14T00:14:35;11.00;20.50
1355;DHT22;671;48.972;9.276;2023-03-14T00:17:01;11.00;23.30
1355;DHT22;671;48.972;9.276;2023-03-14T00:19:28;11.00;16.70
1355;DHT22;671;48.972;9.276;2023-03-14T00:21:54;11.00;16.50
1355;DHT22;671;48.972;9.276;2023-03-14T00:24:20;11.00;17.10
1355;DHT22;671;48.972;9.276;2023-03-14T00:26:47;11.00;21.40
1355;DHT22;671;48.972;9.276;2023-03-14T00:29:13;11.00;15.20
1355;DHT22;671;48.972;9.276;2023-03-14T00:31:40;11.00;11.00
1355;DHT22;671;48.972;9.276;2023-03-14T00:34:06;10.90;15.90
1355;DHT22;671;48.972;9.276;2023-03-14T00:36:33;10.90;14.90
1355;DHT22;671;48.972;9.276;2023-03-14T00:38:59;10.90;17.90
1355;DHT22;671;48.972;9.276;2023-03-14T00:41:26;11.00;16.90
1355;DHT22;671;48.972;9.276;2023-03-14T00:43:52;10.90;17.20
1355;DHT22;671;48.972;9.276;2023-03-14T00:46:19;10.90;21.00
1355;DHT22;671;48.972;9.276;2023-03-14T00:48:46;10.90;19.60
1355;DHT22;671;48.972;9.276;2023-03-14T00:51:13;10.90;24.10
1355;DHT22;671;48.972;9.276;2023-03-14T00:53:41;10.90;23.40
1355;DHT22;671;48.972;9.276;2023-03-14T00:56:10;10.90;21.30
1355;DHT22;671;48.972;9.276;2023-03-14T00:58:37;10.90;21.10
1355;DHT22;671;48.972;9.276;2023-03-14T01:01:13;10.80;22.90
1355;DHT22;671;48.972;9.276;2023-03-14T01:03:40;10.80;21.20
1355;DHT22;671;48.972;9.276;2023-03-14T01:06:12;10.90;17.90
1355;DHT22;671;48.972;9.276;2023-03-14T01:08:39;10.90;17.10
1355;DHT22;671;48.972;9.276;2023-03-14T01:11:10;10.90;11.30
1355;DHT22;671;48.972;9.276;2023-03-14T01:13:39;10.90;12.00
1355;DHT22;671;48.972;9.276;2023-03-14T01:16:08;10.90;10.10
1355;DHT22;671;48.972;9.276;2023-03-14T01:18:35;10.90;10.40
1355;DHT22;671;48.972;9.276;2023-03-14T01:21:03;10.90;9.20
1355;DHT22;671;48.972;9.276;2023-03-14T01:23:30;10.90;4.00
1355;DHT22;671;48.972;9.276;2023-03-14T01:25:56;11.00;3.60
1355;DHT22;671;48.972;9.276;2023-03-14T01:28:24;11.00;1.00
1355;DHT22;671;48.972;9.276;2023-03-14T01:30:50;11.10;1.00
1355;DHT22;671;48.972;9.276;2023-03-14T01:33:17;11.10;1.00
1355;DHT22;671;48.972;9.276;2023-03-14T01:35:43;11.10;1.00
1355;DHT22;671;48.972;9.276;2023-03-14T01:38:10;11.20;1.00
1355;DHT22;671;48.972;9.276;2023-03-14T01:40:44;11.10;1.00
1355;DHT22;671;48.972;9.276;2023-03-14T01:43:19;11.20;1.00
1355;DHT22;671;48.972;9.276;2023-03-14T01:51:31;11.20;1.00
1355;DHT22;671;48.972;9.276;2023-03-14T01:59:32;11.10;1.00
1355;DHT22;671;48.972;9.276;2023-03-14T02:01:59;11.10;1.00
1355;DHT22;671;48.972;9.276;2023-03-14T02:04:29;11.10;1.00
1355;DHT22;671;48.972;9.276;2023-03-14T02:07:03;11.10;1.00
1355;DHT22;671;48.972;9.276;2023-03-14T02:09:32;11.10;1.00
1355;DHT22;671;48.972;9.276;2023-03-14T02:11:59;11.10;1.00
1355;DHT22;671;48.972;9.276;2023-03-14T02:14:31;11.10;1.00
1355;DHT22;671;48.972;9.276;2023-03-14T02:16:58;11.10;1.00
1355;DHT22;671;48.972;9.276;2023-03-14T02:22:29;11.10;1.00
1355;DHT22;671;48.972;9.276;2023-03-14T02:27:33;11.00;1.00
1355;DHT22;671;48.972;9.276;2023-03-14T02:30:04;11.00;1.00
1355;DHT22;671;48.972;9.276;2023-03-14T02:32:33;11.00;1.00
1355;DHT22;671;48.972;9.276;2023-03-14T02:35:03;11.10;1.00
1355;DHT22;671;48.972;9.276;2023-03-14T02:40:16;11.10;1.00
1355;DHT22;671;48.972;9.276;2023-03-14T02:42:42;11.10;1.00
1355;DHT22;671;48.972;9.276;2023-03-14T02:47:39;11.10;1.00
1355;DHT22;671;48.972;9.276;2023-03-14T02:50:13;11.10;1.00
1355;DHT22;671;48.972;9.276;2023-03-14T02:52:40;11.10;1.00
1355;DHT22;671;48.972;9.276;2023-03-14T02:55:08;11.10;1.00
1355;DHT22;671;48.972;9.276;2023-03-14T02:57:34;11.10;1.00
1355;DHT22;671;48.972;9.276;2023-03-14T03:00:02;11.10;1.00
1355;DHT22;671;48.972;9.276;2023-03-14T03:02:32;11.00;1.00
1355;DHT22;671;48.972;9.276;2023-03-14T03:04:59;11.00;1.00
1355;DHT22;671;48.972;9.276;2023-03-14T03:07:25;11.00;1.00
1355;DHT22;671;48.972;9.276;2023-03-14T03:09:51;11.00;1.00
1355;DHT22;671;48.972;9.276;2023-03-14T03:12:18;11.00;1.00
1355;DHT22;671;48.972;9.276;2023-03-14T03:14:44;11.00;1.00
1355;DHT22;671;48.972;9.276;2023-03-14T03:17:11;11.00;1.00
1355;DHT22;671;48.972;9.276;2023-03-14T03:19:37;11.00;1.00
1355;DHT22;671;48.972;9.276;2023-03-14T03:22:04;11.00;1.00
1355;DHT22;671;48.972;9.276;2023-03-14T03:24:30;10.90;1.00
1355;DHT22;671;48.972;9.276;2023-03-14T03:26:57;10.90;1.00
1355;DHT22;671;48.972;9.276;2023-03-14T03:29:23;10.90;1.00
1355;DHT22;671;48.972;9.276;2023-03-14T03:31:50;10.90;1.00
1355;DHT22;671;48.972;9.276;2023-03-14T03:34:16;10.90;1.00
1355;DHT22;671;48.972;9.276;2023-03-14T03:36:43;10.90;1.00
1355;DHT22;671;48.972;9.276;2023-03-14T03:39:09;10.90;1.00
1355;DHT22;671;48.972;9.276;2023-03-14T03:41:35;10.90;1.00
1355;DHT22;671;48.972;9.276;2023-03-14T03:44:02;10.90;1.00
1355;DHT22;671;48.972;9.276;2023-03-14T03:46:29;10.90;1.00
1355;DHT22;671;48.972;9.276;2023-03-14T03:48:56;10.90;1.00
1355;DHT22;671;48.972;9.276;2023-03-14T03:51:23;10.80;1.00
1355;DHT22;671;48.972;9.276;2023-03-14T03:53:49;10.80;1.00
1355;DHT22;671;48.972;9.276;2023-03-14T03:56:16;10.80;1.00
1355;DHT22;671;48.972;9.276;2023-03-14T03:58:43;10.80;1.00
1355;DHT22;671;48.972;9.276;2023-03-14T04:01:09;10.80;1.00
1355;DHT22;671;48.972;9.276;2023-03-14T04:03:37;10.70;1.00
1355;DHT22;671;48.972;9.276;2023-03-14T04:06:07;10.70;1.00
1355;DHT22;671;48.972;9.276;2023-03-14T04:08:34;10.70;1.00
1355;DHT22;671;48.972;9.276;2023-03-14T04:11:02;10.70;1.00
1355;DHT22;671;48.972;9.276;2023-03-14T04:13:28;10.70;1.00
1355;DHT22;671;48.972;9.276;2023-03-14T04:15:55;10.70;1.00
1355;DHT22;671;48.972;9.276;2023-03-14T04:18:22;10.70;1.00
1355;DHT22;671;48.972;9.276;2023-03-14T04:20:52;10.60;1.00
1355;DHT22;671;48.972;9.276;2023-03-14T04:23:19;10.60;1.00
1355;DHT22;671;48.972;9.276;2023-03-14T04:25:45;10.60;1.00
1355;DHT22;671;48.972;9.276;2023-03-14T04:28:11;10.60;1.00
1355;DHT22;671;48.972;9.276;2023-03-14T04:30:38;10.60;1.00
1355;DHT22;671;48.972;9.276;2023-03-14T04:33:04;10.60;1.00
1355;DHT22;671;48.972;9.276;2023-03-14T04:35:31;10.60;1.00
1355;DHT22;671;48.972;9.276;2023-03-14T04:37:58;10.70;1.00
1355;DHT22;671;48.972;9.276;2023-03-14T04:40:25;10.70;1.00
1355;DHT22;671;48.972;9.276;2023-03-14T04:42:52;10.70;1.00
1355;DHT22;671;48.972;9.276;2023-03-14T04:45:18;10.70;1.00
1355;DHT22;671;48.972;9.276;2023-03-14T04:47:45;10.70;1.00
1355;DHT22;671;48.972;9.276;2023-03-14T04:50:11;10.60;1.00
1355;DHT22;671;48.972;9.276;2023-03-14T04:52:37;10.60;1.00
1355;DHT22;671;48.972;9.276;2023-03-14T04:55:04;10.60;1.00
1355;DHT22;671;48.972;9.276;2023-03-14T04:57:31;10.60;1.00
1355;DHT22;671;48.972;9.276;2023-03-14T04:59:57;10.50;1.00
1355;DHT22;671;48.972;9.276;2023-03-14T05:02:24;10.50;1.00
1355;DHT22;671;48.972;9.276;2023-03-14T05:04:50;10.50;1.00
1355;DHT22;671;48.972;9.276;2023-03-14T05:07:17;10.50;1.00
1355;DHT22;671;48.972;9.276;2023-03-14T05:09:43;10.40;1.00
1355;DHT22;671;48.972;9.276;2023-03-14T05:12:09;10.40;1.00
1355;DHT22;671;48.972;9.276;2023-03-14T05:14:36;10.40;1.00
1355;DHT22;671;48.972;9.276;2023-03-14T05:17:02;10.30;1.00
1355;DHT22;671;48.972;9.276;2023-03-14T05:19:29;10.30;1.00
1355;DHT22;671;48.972;9.276;2023-03-14T05:21:55;10.30;1.00
1355;DHT22;671;48.972;9.276;2023-03-14T05:24:22;10.30;1.00
1355;DHT22;671;48.972;9.276;2023-03-14T05:26:48;10.30;1.00
1355;DHT22;671;48.972;9.276;2023-03-14T05:29:15;10.30;1.00
1355;DHT22;671;48.972;9.276;2023-03-14T05:31:41;10.30;1.00
1355;DHT22;671;48.972;9.276;2023-03-14T05:34:07;10.30;1.00
1355;DHT22;671;48.972;9.276;2023-03-14T05:36:34;10.20;1.00
1355;DHT22;671;48.972;9.276;2023-03-14T05:39:00;10.20;1.00
1355;DHT22;671;48.972;9.276;2023-03-14T05:41:27;10.20;1.00
1355;DHT22;671;48.972;9.276;2023-03-14T05:43:53;10.20;1.00
1355;DHT22;671;48.972;9.276;2023-03-14T05:46:20;10.30;1.00
1355;DHT22;671;48.972;9.276;2023-03-14T05:48:46;10.30;1.00
1355;DHT22;671;48.972;9.276;2023-03-14T05:51:12;10.40;1.00
1355;DHT22;671;48.972;9.276;2023-03-14T05:53:39;10.40;1.00
1355;DHT22;671;48.972;9.276;2023-03-14T05:56:06;10.40;1.00
1355;DHT22;671;48.972;9.276;2023-03-14T05:58:32;10.50;1.00
1355;DHT22;671;48.972;9.276;2023-03-14T06:01:02;10.50;1.00
1355;DHT22;671;48.972;9.276;2023-03-14T06:03:29;10.50;1.00
1355;DHT22;671;48.972;9.276;2023-03-14T06:05:56;10.60;1.00
1355;DHT22;671;48.972;9.276;2023-03-14T06:08:22;10.60;1.00
1355;DHT22;671;48.972;9.276;2023-03-14T06:10:49;10.60;1.00
1355;DHT22;671;48.972;9.276;2023-03-14T06:13:16;10.60;1.00
1355;DHT22;671;48.972;9.276;2023-03-14T06:15:43;10.60;1.00
1355;DHT22;671;48.972;9.276;2023-03-14T06:18:09;10.60;1.00
1355;DHT22;671;48.972;9.276;2023-03-14T06:20:37;10.60;1.00
1355;DHT22;671;48.972;9.276;2023-03-14T06:23:09;10.60;1.00
1355;DHT22;671;48.972;9.276;2023-03-14T06:25:36;10.70;1.00
1355;DHT22;671;48.972;9.276;2023-03-14T06:28:03;10.70;1.00
1355;DHT22;671;48.972;9.276;2023-03-14T06:30:30;10.70;1.00
1355;DHT22;671;48.972;9.276;2023-03-14T06:32:56;10.70;1.00
1355;DHT22;671;48.972;9.276;2023-03-14T06:35:23;10.80;1.00
1355;DHT22;671;48.972;9.276;2023-03-14T06:37:49;10.80;1.00
1355;DHT22;671;48.972;9.276;2023-03-14T06:40:16;10.90;1.00
1355;DHT22;671;48.972;9.276;2023-03-14T06:42:44;10.90;1.00
1355;DHT22;671;48.972;9.276;2023-03-14T06:45:11;10.90;1.00
1355;DHT22;671;48.972;9.276;2023-03-14T06:47:37;10.90;1.00
1355;DHT22;671;48.972;9.276;2023-03-14T06:50:07;11.00;1.00
1355;DHT22;671;48.972;9.276;2023-03-14T06:52:35;11.10;1.00
1355;DHT22;671;48.972;9.276;2023-03-14T06:55:02;11.10;1.00
1355;DHT22;671;48.972;9.276;2023-03-14T06:57:29;11.10;1.00
1355;DHT22;671;48.972;9.276;2023-03-14T06:59:55;11.00;1.00
1355;DHT22;671;48.972;9.276;2023-03-14T07:02:22;10.90;1.00
1355;DHT22;671;48.972;9.276;2023-03-14T07:04:49;10.90;1.00
1355;DHT22;671;48.972;9.276;2023-03-14T07:07:15;10.90;1.00
1355;DHT22;671;48.972;9.276;2023-03-14T07:09:42;10.90;1.00
1355;DHT22;671;48.972;9.276;2023-03-14T07:12:09;11.00;1.00
1355;DHT22;671;48.972;9.276;2023-03-14T07:14:35;11.10;1.00
1355;DHT22;671;48.972;9.276;2023-03-14T07:17:02;11.30;1.00
1355;DHT22;671;48.972;9.276;2023-03-14T07:19:28;11.50;1.00
1355;DHT22;671;48.972;9.276;2023-03-14T07:21:54;11.60;1.00
1355;DHT22;671;48.972;9.276;2023-03-14T07:24:21;11.80;1.00
1355;DHT22;671;48.972;9.276;2023-03-14T07:26:47;11.90;99.90
1355;DHT22;671;48.972;9.276;2023-03-14T07:29:14;11.90;1.00
1355;DHT22;671;48.972;9.276;2023-03-14T07:31:40;12.00;99.90
1355;DHT22;671;48.972;9.276;2023-03-14T07:34:07;12.10;1.00
1355;DHT22;671;48.972;9.276;2023-03-14T07:36:33;12.10;1.00
1355;DHT22;671;48.972;9.276;2023-03-14T07:39:00;12.20;1.00
1355;DHT22;671;48.972;9.276;2023-03-14T07:41:26;12.30;1.00
1355;DHT22;671;48.972;9.276;2023-03-14T07:43:53;12.40;1.00
1355;DHT22;671;48.972;9.276;2023-03-14T07:46:19;12.50;1.00
1355;DHT22;671;48.972;9.276;2023-03-14T07:48:45;12.60;1.00
1355;DHT22;671;48.972;9.276;2023-03-14T07:51:12;12.70;2.60
1355;DHT22;671;48.972;9.276;2023-03-14T07:53:38;12.70;31.30
1355;DHT22;671;48.972;9.276;2023-03-14T07:56:05;12.70;12.10
1355;DHT22;671;48.972;9.276;2023-03-14T07:58:32;12.70;84.10
1355;DHT22;671;48.972;9.276;2023-03-14T08:00:59;12.80;78.60
1355;DHT22;671;48.972;9.276;2023-03-14T08:03:25;12.80;36.80
1355;DHT22;671;48.972;9.276;2023-03-14T08:05:52;12.90;55.70
1355;DHT22;671;48.972;9.276;2023-03-14T08:08:19;12.90;81.40
1355;DHT22;671;48.972;9.276;2023-03-14T08:10:46;12.90;67.30
1355;DHT22;671;48.972;9.276;2023-03-14T08:13:12;12.90;83.10
1355;DHT22;671;48.972;9.276;2023-03-14T08:15:39;13.00;74.30
1355;DHT22;671;48.972;9.276;2023-03-14T08:18:05;13.00;81.70
1355;DHT22;671;48.972;9.276;2023-03-14T08:20:32;13.00;98.00
1355;DHT22;671;48.972;9.276;2023-03-14T08:23:00;13.10;99.90
1355;DHT22;671;48.972;9.276;2023-03-14T08:25:27;13.10;99.90
1355;DHT22;671;48.972;9.276;2023-03-14T08:27:55;13.30;99.90
1355;DHT22;671;48.972;9.276;2023-03-14T08:30:22;13.40;99.90
1355;DHT22;671;48.972;9.276;2023-03-14T08:32:48;13.50;99.90
1355;DHT22;671;48.972;9.276;2023-03-14T08:35:15;13.70;99.90
1355;DHT22;671;48.972;9.276;2023-03-14T08:37:42;13.80;99.90
1355;DHT22;671;48.972;9.276;2023-03-14T08:40:09;13.90;99.90
1355;DHT22;671;48.972;9.276;2023-03-14T08:42:37;13.90;99.90
1355;DHT22;671;48.972;9.276;2023-03-14T08:45:05;13.90;99.90
1355;DHT22;671;48.972;9.276;2023-03-14T08:47:32;14.00;99.90
1355;DHT22;671;48.972;9.276;2023-03-14T08:49:59;13.90;99.90
1355;DHT22;671;48.972;9.276;2023-03-14T08:52:25;14.00;99.90
1355;DHT22;671;48.972;9.276;2023-03-14T08:54:52;14.00;99.90
1355;DHT22;671;48.972;9.276;2023-03-14T08:57:18;14.00;99.90
1355;DHT22;671;48.972;9.276;2023-03-14T08:59:44;14.00;99.90
1355;DHT22;671;48.972;9.276;2023-03-14T09:02:11;14.10;99.90
1355;DHT22;671;48.972;9.276;2023-03-14T09:04:38;14.10;99.90
1355;DHT22;671;48.972;9.276;2023-03-14T09:07:04;14.00;99.90
1355;DHT22;671;48.972;9.276;2023-03-14T09:09:32;14.00;99.90
1355;DHT22;671;48.972;9.276;2023-03-14T09:11:59;14.00;99.90
1355;DHT22;671;48.972;9.276;2023-03-14T09:14:25;14.10;99.90
1355;DHT22;671;48.972;9.276;2023-03-14T09:16:52;14.00;99.90
1355;DHT22;671;48.972;9.276;2023-03-14T09:19:18;13.90;99.90
1355;DHT22;671;48.972;9.276;2023-03-14T09:21:45;13.80;99.90
1355;DHT22;671;48.972;9.276;2023-03-14T09:24:11;13.80;99.90
1355;DHT22;671;48.972;9.276;2023-03-14T09:26:38;13.80;99.90
1355;DHT22;671;48.972;9.276;2023-03-14T09:29:04;13.80;99.90
1355;DHT22;671;48.972;9.276;2023-03-14T09:31:31;13.80;99.90
1355;DHT22;671;48.972;9.276;2023-03-14T09:33:57;13.90;99.90
1355;DHT22;671;48.972;9.276;2023-03-14T09:36:24;13.90;99.90
1355;DHT22;671;48.972;9.276;2023-03-14T09:38:50;14.00;99.90
1355;DHT22;671;48.972;9.276;2023-03-14T09:41:28;14.10;99.90
1355;DHT22;671;48.972;9.276;2023-03-14T09:44:10;14.30;99.90
1355;DHT22;671;48.972;9.276;2023-03-14T09:46:38;14.40;99.90
1355;DHT22;671;48.972;9.276;2023-03-14T09:49:11;14.30;99.90
1355;DHT22;671;48.972;9.276;2023-03-14T09:51:41;14.20;99.90
1355;DHT22;671;48.972;9.276;2023-03-14T09:56:51;14.20;99.90
1355;DHT22;671;48.972;9.276;2023-03-14T09:59:18;14.10;99.90
1355;DHT22;671;48.972;9.276;2023-03-14T10:01:45;14.20;99.90
1355;DHT22;671;48.972;9.276;2023-03-14T10:04:15;14.30;99.90
1355;DHT22;671;48.972;9.276;2023-03-14T10:06:43;14.50;99.90
1355;DHT22;671;48.972;9.276;2023-03-14T10:09:21;14.50;99.90
1355;DHT22;671;48.972;9.276;2023-03-14T10:11:54;14.60;99.90
1355;DHT22;671;48.972;9.276;2023-03-14T10:14:33;14.70;99.90
1355;DHT22;671;48.972;9.276;2023-03-14T10:17:11;14.90;99.90
1355;DHT22;671;48.972;9.276;2023-03-14T10:19:50;15.10;99.90
1355;DHT22;671;48.972;9.276;2023-03-14T10:22:18;15.10;99.90
1355;DHT22;671;48.972;9.276;2023-03-14T10:24:49;15.10;99.90
1355;DHT22;671;48.972;9.276;2023-03-14T10:27:23;15.10;99.90
1355;DHT22;671;48.972;9.276;2023-03-14T10:29:56;15.20;99.90
1355;DHT22;671;48.972;9.276;2023-03-14T10:32:34;15.30;99.90
1355;DHT22;671;48.972;9.276;2023-03-14T10:35:08;15.40;99.90
1355;DHT22;671;48.972;9.276;2023-03-14T10:37:58;15.40;99.90
1355;DHT22;671;48.972;9.276;2023-03-14T10:40:28;15.40;99.90
1355;DHT22;671;48.972;9.276;2023-03-14T10:42:58;15.40;99.90
1355;DHT22;671;48.972;9.276;2023-03-14T10:45:31;15.30;99.90
1355;DHT22;671;48.972;9.276;2023-03-14T10:51:17;15.20;99.90
1355;DHT22;671;48.972;9.276;2023-03-14T10:56:17;15.30;99.90
1355;DHT22;671;48.972;9.276;2023-03-14T10:58:45;15.30;99.90
1355;DHT22;671;48.972;9.276;2023-03-14T11:01:37;15.30;99.90
1355;DHT22;671;48.972;9.276;2023-03-14T11:07:09;15.20;99.90
1355;DHT22;671;48.972;9.276;2023-03-14T11:18:43;15.00;99.90
1355;DHT22;671;48.972;9.276;2023-03-14T11:21:13;14.90;99.90
1355;DHT22;671;48.972;9.276;2023-03-14T11:31:59;14.60;99.90
1355;DHT22;671;48.972;9.276;2023-03-14T11:34:51;14.60;99.90
1355;DHT22;671;48.972;9.276;2023-03-14T11:37:36;14.50;99.90
1355;DHT22;671;48.972;9.276;2023-03-14T11:40:19;14.40;99.90
1355;DHT22;671;48.972;9.276;2023-03-14T11:42:59;14.40;99.90
1355;DHT22;671;48.972;9.276;2023-03-14T11:45:30;14.30;99.90
1355;DHT22;671;48.972;9.276;2023-03-14T11:50:36;13.80;99.90
1355;DHT22;671;48.972;9.276;2023-03-14T11:53:34;13.70;99.90
1355;DHT22;671;48.972;9.276;2023-03-14T11:56:02;13.60;99.90
1355;DHT22;671;48.972;9.276;2023-03-14T11:58:35;13.60;99.90
1355;DHT22;671;48.972;9.276;2023-03-14T12:01:09;13.60;1.00
1355;DHT22;671;48.972;9.276;2023-03-14T12:03:49;13.60;3.60
1355;DHT22;671;48.972;9.276;2023-03-14T12:06:35;13.40;1.00
1355;DHT22;671;48.972;9.276;2023-03-14T12:09:05;13.30;98.00
1355;DHT22;671;48.972;9.276;2023-03-14T12:14:02;13.00;99.90
1355;DHT22;671;48.972;9.276;2023-03-14T12:16:35;12.90;99.90
1355;DHT22;671;48.972;9.276;2023-03-14T12:19:24;12.80;14.20
1355;DHT22;671;48.972;9.276;2023-03-14T12:24:38;12.90;99.90
1355;DHT22;671;48.972;9.276;2023-03-14T12:27:06;12.80;99.90
1355;DHT22;671;48.972;9.276;2023-03-14T12:29:58;12.90;99.90
1355;DHT22;671;48.972;9.276;2023-03-14T12:32:25;12.90;99.90
1355;DHT22;671;48.972;9.276;2023-03-14T12:34:52;13.00;1.00
1355;DHT22;671;48.972;9.276;2023-03-14T12:37:37;12.90;1.00
1355;DHT22;671;48.972;9.276;2023-03-14T12:43:00;12.50;1.00
1355;DHT22;671;48.972;9.276;2023-03-14T12:45:32;12.20;1.00
1355;DHT22;671;48.972;9.276;2023-03-14T12:48:24;11.90;99.90
1355;DHT22;671;48.972;9.276;2023-03-14T12:51:01;11.70;99.90
1355;DHT22;671;48.972;9.276;2023-03-14T12:59:31;11.10;1.00
1355;DHT22;671;48.972;9.276;2023-03-14T13:02:59;11.00;1.00
1355;DHT22;671;48.972;9.276;2023-03-14T13:05:03;11.10;99.90
1355;DHT22;671;48.972;9.276;2023-03-14T13:10:26;11.40;1.00
1355;DHT22;671;48.972;9.276;2023-03-14T13:13:01;11.40;99.90
1355;DHT22;671;48.972;9.276;2023-03-14T13:15:33;11.50;1.00
1355;DHT22;671;48.972;9.276;2023-03-14T13:18:03;11.60;1.00
1355;DHT22;671;48.972;9.276;2023-03-14T13:20:44;11.70;99.90
1355;DHT22;671;48.972;9.276;2023-03-14T13:23:27;11.90;99.90
1355;DHT22;671;48.972;9.276;2023-03-14T13:25:54;12.10;1.00
1355;DHT22;671;48.972;9.276;2023-03-14T13:28:21;12.20;99.90
1355;DHT22;671;48.972;9.276;2023-03-14T13:30:50;12.30;1.00
1355;DHT22;671;48.972;9.276;2023-03-14T13:33:19;12.50;1.00
1355;DHT22;671;48.972;9.276;2023-03-14T13:35:54;12.50;99.90
1355;DHT22;671;48.972;9.276;2023-03-14T13:38:23;12.60;99.90
1355;DHT22;671;48.972;9.276;2023-03-14T13:40:51;12.60;1.00
1355;DHT22;671;48.972;9.276;2023-03-14T13:43:25;12.40;1.00
1355;DHT22;671;48.972;9.276;2023-03-14T13:48:32;12.20;1.00
1355;DHT22;671;48.972;9.276;2023-03-14T13:51:03;12.20;1.00
1355;DHT22;671;48.972;9.276;2023-03-14T13:53:31;12.20;1.00
1355;DHT22;671;48.972;9.276;2023-03-14T13:56:02;12.10;1.00
1355;DHT22;671;48.972;9.276;2023-03-14T13:58:31;12.00;1.00
1355;DHT22;671;48.972;9.276;2023-03-14T14:01:13;12.00;1.00
1355;DHT22;671;48.972;9.276;2023-03-14T14:03:42;12.10;1.00
1355;DHT22;671;48.972;9.276;2023-03-14T14:06:38;12.10;1.00
1355;DHT22;671;48.972;9.276;2023-03-14T14:11:37;12.00;1.00
1355;DHT22;671;48.972;9.276;2023-03-14T14:14:43;11.90;1.00
1355;DHT22;671;48.972;9.276;2023-03-14T14:17:05;11.90;1.00
1355;DHT22;671;48.972;9.276;2023-03-14T14:19:34;11.90;1.00
1355;DHT22;671;48.972;9.276;2023-03-14T14:22:02;11.80;1.00
1355;DHT22;671;48.972;9.276;2023-03-14T14:24:31;11.80;1.00
1355;DHT22;671;48.972;9.276;2023-03-14T14:27:47;11.70;1.00
1355;DHT22;671;48.972;9.276;2023-03-14T14:30:03;11.50;1.00
1355;DHT22;671;48.972;9.276;2023-03-14T14:32:38;11.40;1.00
1355;DHT22;671;48.972;9.276;2023-03-14T14:35:05;11.40;1.00
1355;DHT22;671;48.972;9.276;2023-03-14T14:37:34;11.40;1.00
1355;DHT22;671;48.972;9.276;2023-03-14T14:40:18;11.30;1.00
1355;DHT22;671;48.972;9.276;2023-03-14T14:42:45;11.30;1.00
1355;DHT22;671;48.972;9.276;2023-03-14T14:45:20;11.30;99.90
1355;DHT22;671;48.972;9.276;2023-03-14T14:47:50;11.40;1.00
1355;DHT22;671;48.972;9.276;2023-03-14T14:56:21;11.20;99.90
1355;DHT22;671;48.972;9.276;2023-03-14T14:58:59;11.10;99.90
1355;DHT22;671;48.972;9.276;2023-03-14T15:01:38;11.10;99.90
1355;DHT22;671;48.972;9.276;2023-03-14T15:04:13;11.10;99.90
1355;DHT22;671;48.972;9.276;2023-03-14T15:06:46;11.10;99.90
1355;DHT22;671;48.972;9.276;2023-03-14T15:09:14;11.10;99.90
1355;DHT22;671;48.972;9.276;2023-03-14T15:11:40;11.10;99.90
1355;DHT22;671;48.972;9.276;2023-03-14T15:14:07;11.10;99.90
1355;DHT22;671;48.972;9.276;2023-03-14T15:16:33;11.20;99.90
1355;DHT22;671;48.972;9.276;2023-03-14T15:19:02;11.40;99.90
1355;DHT22;671;48.972;9.276;2023-03-14T15:21:31;11.60;99.90
1355;DHT22;671;48.972;9.276;2023-03-14T15:23:59;11.50;99.90
1355;DHT22;671;48.972;9.276;2023-03-14T15:26:27;11.40;99.90
1355;DHT22;671;48.972;9.276;2023-03-14T15:28:54;11.50;99.90
1355;DHT22;671;48.972;9.276;2023-03-14T15:31:21;11.60;99.90
1355;DHT22;671;48.972;9.276;2023-03-14T15:33:47;11.70;99.90
1355;DHT22;671;48.972;9.276;2023-03-14T15:36:26;11.70;99.90
1355;DHT22;671;48.972;9.276;2023-03-14T15:38:54;11.60;99.90
1355;DHT22;671;48.972;9.276;2023-03-14T15:41:21;11.50;99.90
1355;DHT22;671;48.972;9.276;2023-03-14T15:43:49;11.50;99.90
1355;DHT22;671;48.972;9.276;2023-03-14T15:46:15;11.50;99.90
1355;DHT22;671;48.972;9.276;2023-03-14T15:48:47;11.50;99.90
1355;DHT22;671;48.972;9.276;2023-03-14T15:51:13;11.50;99.90
1355;DHT22;671;48.972;9.276;2023-03-14T15:53:41;11.40;99.90
1355;DHT22;671;48.972;9.276;2023-03-14T15:56:17;11.30;99.90
1355;DHT22;671;48.972;9.276;2023-03-14T15:58:44;11.20;99.90
1355;DHT22;671;48.972;9.276;2023-03-14T16:01:13;11.10;99.90
1355;DHT22;671;48.972;9.276;2023-03-14T16:03:43;11.10;99.90
1355;DHT22;671;48.972;9.276;2023-03-14T16:06:10;11.00;99.90
1355;DHT22;671;48.972;9.276;2023-03-14T16:08:36;10.90;99.90
1355;DHT22;671;48.972;9.276;2023-03-14T16:11:03;10.90;99.90
1355;DHT22;671;48.972;9.276;2023-03-14T16:13:31;10.80;99.90
1355;DHT22;671;48.972;9.276;2023-03-14T16:16:00;10.70;99.90
1355;DHT22;671;48.972;9.276;2023-03-14T16:18:32;10.70;99.90
1355;DHT22;671;48.972;9.276;2023-03-14T16:21:01;10.60;99.90
1355;DHT22;671;48.972;9.276;2023-03-14T16:23:29;10.50;99.90
1355;DHT22;671;48.972;9.276;2023-03-14T16:25:56;10.30;99.90
1355;DHT22;671;48.972;9.276;2023-03-14T16:28:23;10.20;99.90
1355;DHT22;671;48.972;9.276;2023-03-14T16:30:50;10.00;1.00
1355;DHT22;671;48.972;9.276;2023-03-14T16:33:17;9.90;1.00
1355;DHT22;671;48.972;9.276;2023-03-14T16:35:54;9.80;1.00
1355;DHT22;671;48.972;9.276;2023-03-14T16:38:22;9.70;1.00
1355;DHT22;671;48.972;9.276;2023-03-14T16:40:55;9.60;1.00
1355;DHT22;671;48.972;9.276;2023-03-14T16:43:22;9.50;1.00
1355;DHT22;671;48.972;9.276;2023-03-14T16:45:49;9.50;1.00
1355;DHT22;671;48.972;9.276;2023-03-14T16:48:16;9.50;1.00
1355;DHT22;671;48.972;9.276;2023-03-14T16:50:42;9.50;1.00
1355;DHT22;671;48.972;9.276;2023-03-14T16:53:09;9.60;1.00
1355;DHT22;671;48.972;9.276;2023-03-14T16:55:40;9.60;1.00
1355;DHT22;671;48.972;9.276;2023-03-14T16:58:08;9.60;1.00
1355;DHT22;671;48.972;9.276;2023-03-14T17:00:34;9.60;1.00
1355;DHT22;671;48.972;9.276;2023-03-14T17:03:02;9.60;1.00
1355;DHT22;671;48.972;9.276;2023-03-14T17:05:28;9.60;1.00
1355;DHT22;671;48.972;9.276;2023-03-14T17:07:55;9.50;1.00
1355;DHT22;671;48.972;9.276;2023-03-14T17:10:22;9.50;1.00
1355;DHT22;671;48.972;9.276;2023-03-14T17:12:48;9.50;1.00
1355;DHT22;671;48.972;9.276;2023-03-14T17:15:15;9.40;1.00
1355;DHT22;671;48.972;9.276;2023-03-14T17:17:41;9.40;1.00
1355;DHT22;671;48.972;9.276;2023-03-14T17:20:08;9.30;1.00
1355;DHT22;671;48.972;9.276;2023-03-14T17:22:34;9.20;1.00
1355;DHT22;671;48.972;9.276;2023-03-14T17:25:01;9.10;1.00
1355;DHT22;671;48.972;9.276;2023-03-14T17:27:28;9.00;82.20
1355;DHT22;671;48.972;9.276;2023-03-14T17:29:54;9.00;99.90
1355;DHT22;671;48.972;9.276;2023-03-14T17:32:20;8.90;99.90
1355;DHT22;671;48.972;9.276;2023-03-14T17:34:47;8.90;1.00
1355;DHT22;671;48.972;9.276;2023-03-14T17:37:13;8.80;1.00
1355;DHT22;671;48.972;9.276;2023-03-14T17:39:40;8.60;1.00
1355;DHT22;671;48.972;9.276;2023-03-14T17:42:06;8.50;99.90
1355;DHT22;671;48.972;9.276;2023-03-14T17:44:33;8.50;1.00
1355;DHT22;671;48.972;9.276;2023-03-14T17:47:01;8.40;1.00
1355;DHT22;671;48.972;9.276;2023-03-14T17:49:27;8.40;1.00
1355;DHT22;671;48.972;9.276;2023-03-14T17:51:54;8.30;1.00
1355;DHT22;671;48.972;9.276;2023-03-14T17:54:20;8.30;57.40
1355;DHT22;671;48.972;9.276;2023-03-14T17:56:47;8.20;99.90
1355;DHT22;671;48.972;9.276;2023-03-14T17:59:14;8.10;1.00
1355;DHT22;671;48.972;9.276;2023-03-14T18:01:40;8.10;1.00
1355;DHT22;671;48.972;9.276;2023-03-14T18:04:07;8.10;1.00